createdAt,value
2022-12-11T00:00:25.049Z,97321.75
2022-12-11T00:02:52.310Z,97324.03
2022-12-11T00:05:19.430Z,97318.09
2022-12-11T00:07:46.642Z,97314.22
2022-12-11T00:10:13.825Z,97314.09
2022-12-11T00:12:40.876Z,97312.84
2022-12-11T00:15:08.963Z,97320.06
2022-12-11T00:17:36.498Z,97322.63
2022-12-11T00:20:04.124Z,97313.09
2022-12-11T00:22:31.437Z,97318.91
2022-12-11T00:24:58.513Z,97310.28
2022-12-11T00:27:25.625Z,97319.72
2022-12-11T00:29:52.660Z,97316.56
2022-12-11T00:32:19.784Z,97318.78
2022-12-11T00:34:46.881Z,97319.97
2022-12-11T00:37:14.109Z,97312.22
2022-12-11T00:39:41.346Z,97315.34
2022-12-11T00:42:08.760Z,97327.28
2022-12-11T00:44:36.200Z,97322.22
2022-12-11T00:47:03.878Z,97318.03
2022-12-11T00:49:30.960Z,97314.94
2022-12-11T00:51:58.034Z,97316.16
2022-12-11T00:54:25.142Z,97313.94
2022-12-11T00:56:52.209Z,97323.16
2022-12-11T00:59:19.294Z,97326.59
2022-12-11T01:01:46.575Z,97316.16
2022-12-11T01:04:13.807Z,97322.25
2022-12-11T01:06:41.230Z,97332.06
2022-12-11T01:09:26.870Z,97325.81
2022-12-11T01:11:54.164Z,97331.00
2022-12-11T01:14:21.245Z,97332.94
2022-12-11T01:16:48.310Z,97336.53
2022-12-11T01:19:15.726Z,97337.72
2022-12-11T01:21:42.971Z,97336.22
2022-12-11T01:24:10.136Z,97336.53
2022-12-11T01:26:37.358Z,97335.22
2022-12-11T01:29:04.467Z,97339.56
2022-12-11T01:31:31.702Z,97337.59
2022-12-11T01:33:58.776Z,97348.22
2022-12-11T01:36:26.203Z,97346.13
2022-12-11T01:38:54.437Z,97352.41
2022-12-11T01:41:22.033Z,97350.94
2022-12-11T01:44:04.621Z,97353.63
2022-12-11T01:46:36.565Z,97355.28
2022-12-11T01:49:06.635Z,97349.16
2022-12-11T01:51:37.368Z,97345.75
2022-12-11T01:54:08.413Z,97344.41
2022-12-11T01:56:36.526Z,97345.59
2022-12-11T01:59:07.306Z,97336.97
2022-12-11T02:01:37.718Z,97342.06
2022-12-11T02:04:06.996Z,97347.69
2022-12-11T02:06:43.374Z,97350.97
2022-12-11T02:09:14.262Z,97348.28
2022-12-11T02:11:53.477Z,97344.41
2022-12-11T02:14:28.133Z,97338.59
2022-12-11T02:17:14.840Z,97342.28
2022-12-11T02:19:50.045Z,97340.06
2022-12-11T02:22:35.885Z,97338.44
2022-12-11T02:25:22.497Z,97335.75
2022-12-11T02:28:11.347Z,97331.28
2022-12-11T02:30:39.415Z,97332.47
2022-12-11T02:33:07.510Z,97333.41
2022-12-11T02:35:38.326Z,97339.66
2022-12-11T02:38:14.215Z,97331.91
2022-12-11T02:40:42.482Z,97333.41
2022-12-11T02:43:11.721Z,97336.22
2022-12-11T02:45:40.782Z,97332.81
2022-12-11T02:48:09.978Z,97333.72
2022-12-11T02:50:45.756Z,97332.53
2022-12-11T02:53:13.829Z,97332.25
2022-12-11T02:55:41.877Z,97330.31
2022-12-11T02:58:18.774Z,97337.16
2022-12-11T03:00:46.388Z,97327.00
2022-12-11T03:03:14.211Z,97333.09
2022-12-11T03:05:42.747Z,97326.69
2022-12-11T03:08:10.292Z,97335.66
2022-12-11T03:10:37.418Z,97336.13
2022-12-11T03:13:04.715Z,97334.31
2022-12-11T03:15:53.387Z,97333.31
2022-12-11T03:18:30.637Z,97334.97
2022-12-11T03:21:13.258Z,97334.34
2022-12-11T03:23:46.287Z,97337.22
2022-12-11T03:26:14.929Z,97339.28
2022-12-11T03:28:55.017Z,97334.69
2022-12-11T03:31:50.483Z,97331.13
2022-12-11T03:34:25.939Z,97330.94
2022-12-11T03:36:54.052Z,97329.28
2022-12-11T03:39:33.217Z,97323.91
2022-12-11T03:42:03.625Z,97333.44
2022-12-11T03:44:32.458Z,97329.28
2022-12-11T03:47:00.482Z,97321.69
2022-12-11T03:49:29.904Z,97331.69
2022-12-11T03:51:58.166Z,97326.19
2022-12-11T03:54:26.103Z,97326.53
2022-12-11T03:56:56.429Z,97329.81
2022-12-11T03:59:23.676Z,97333.06
2022-12-11T04:01:51.255Z,97339.63
2022-12-11T04:04:18.415Z,97344.84
2022-12-11T04:06:45.560Z,97334.88
2022-12-11T04:09:12.865Z,97342.16
2022-12-11T04:11:39.971Z,97353.47
2022-12-11T04:14:30.301Z,97351.38
2022-12-11T04:16:58.839Z,97340.94
2022-12-11T04:19:44.779Z,97346.03
2022-12-11T04:22:32.205Z,97347.78
2022-12-11T04:25:00.101Z,97348.06
2022-12-11T04:27:45.872Z,97342.72
2022-12-11T04:30:24.660Z,97336.91
2022-12-11T04:32:54.388Z,97339.16
2022-12-11T04:35:22.166Z,97341.38
2022-12-11T04:37:49.566Z,97339.91
2022-12-11T04:40:19.010Z,97332.03
2022-12-11T04:42:46.134Z,97334.69
2022-12-11T04:45:13.507Z,97332.03
2022-12-11T04:47:41.693Z,97330.81
2022-12-11T04:50:10.948Z,97330.81
2022-12-11T04:52:38.010Z,97331.13
2022-12-11T04:55:06.401Z,97334.91
2022-12-11T04:57:33.495Z,97341.13
2022-12-11T05:00:00.620Z,97341.13
2022-12-11T05:02:27.875Z,97340.25
2022-12-11T05:04:55.019Z,97329.81
2022-12-11T05:07:22.041Z,97325.66
2022-12-11T05:09:49.087Z,97323.13
2022-12-11T05:12:16.139Z,97324.31
2022-12-11T05:14:43.512Z,97323.13
2022-12-11T05:17:10.577Z,97312.13
2022-12-11T05:19:37.661Z,97322.84
2022-12-11T05:22:04.741Z,97315.56
2022-12-11T05:24:31.847Z,97309.31
2022-12-11T05:26:59.034Z,97312.75
2022-12-11T05:29:26.118Z,97310.50
2022-12-11T05:31:53.199Z,97310.22
2022-12-11T05:34:20.261Z,97308.13
2022-12-11T05:36:47.347Z,97300.25
2022-12-11T05:39:14.587Z,97308.88
2022-12-11T05:41:41.829Z,97301.91
2022-12-11T05:44:12.634Z,97310.69
2022-12-11T05:46:40.515Z,97309.78
2022-12-11T05:49:08.036Z,97313.66
2022-12-11T05:51:35.126Z,97303.81
2022-12-11T05:54:02.773Z,97309.94
2022-12-11T05:56:32.490Z,97306.81
2022-12-11T05:59:00.775Z,97307.56
2022-12-11T06:01:29.623Z,97310.69
2022-12-11T06:03:57.317Z,97307.25
2022-12-11T06:06:25.157Z,97312.00
2022-12-11T06:08:53.822Z,97309.78
2022-12-11T06:11:24.201Z,97318.41
2022-12-11T06:13:52.413Z,97315.44
2022-12-11T06:16:20.199Z,97318.69
2022-12-11T06:18:47.902Z,97316.34
2022-12-11T06:21:23.751Z,97317.81
2022-12-11T06:23:53.424Z,97317.66
2022-12-11T06:26:21.010Z,97316.19
2022-12-11T06:28:48.727Z,97316.47
2022-12-11T06:31:16.406Z,97320.94
2022-12-11T06:33:43.558Z,97325.13
2022-12-11T06:36:13.638Z,97331.06
2022-12-11T06:38:40.743Z,97324.66
2022-12-11T06:41:08.518Z,97322.00
2022-12-11T06:43:36.802Z,97327.06
2022-12-11T06:46:15.105Z,97332.84
2022-12-11T06:48:42.883Z,97332.69
2022-12-11T06:51:15.412Z,97329.56
2022-12-11T06:53:42.631Z,97332.69
2022-12-11T06:56:14.559Z,97337.44
2022-12-11T06:58:42.671Z,97337.16
2022-12-11T07:01:21.292Z,97342.22
2022-12-11T07:03:48.989Z,97339.56
2022-12-11T07:06:16.596Z,97341.03
2022-12-11T07:08:43.680Z,97333.91
2022-12-11T07:11:12.890Z,97343.09
2022-12-11T07:13:41.945Z,97341.03
2022-12-11T07:16:11.267Z,97338.94
2022-12-11T07:18:42.734Z,97341.63
2022-12-11T07:21:12.957Z,97342.69
2022-12-11T07:23:40.643Z,97350.25
2022-12-11T07:26:14.022Z,97353.38
2022-12-11T07:28:41.320Z,97353.22
2022-12-11T07:31:12.989Z,97359.31
2022-12-11T07:33:40.807Z,97361.13
2022-12-11T07:36:09.478Z,97357.66
2022-12-11T07:38:36.930Z,97361.88
2022-12-11T07:41:15.580Z,97364.38
2022-12-11T07:43:43.274Z,97356.34
2022-12-11T07:46:16.115Z,97362.31
2022-12-11T07:48:45.355Z,97358.13
2022-12-11T07:51:18.271Z,97352.63
2022-12-11T07:53:47.188Z,97363.34
2022-12-11T07:56:15.591Z,97360.66
2022-12-11T07:58:42.786Z,97362.44
2022-12-11T08:01:20.057Z,97364.97
2022-12-11T08:03:47.689Z,97363.63
2022-12-11T08:06:15.311Z,97365.41
2022-12-11T08:08:42.510Z,97368.69
2022-12-11T08:11:12.389Z,97362.28
2022-12-11T08:13:39.965Z,97367.19
2022-12-11T08:16:09.020Z,97360.34
2022-12-11T08:18:37.079Z,97351.41
2022-12-11T08:21:10.165Z,97348.13
2022-12-11T08:23:37.385Z,97350.06
2022-12-11T08:26:06.450Z,97348.44
2022-12-11T08:28:33.608Z,97341.88
2022-12-11T08:31:01.256Z,97345.16
2022-12-11T08:33:28.362Z,97344.25
2022-12-11T08:35:55.392Z,97336.81
2022-12-11T08:38:25.626Z,97342.16
2022-12-11T08:40:53.044Z,97343.34
2022-12-11T08:43:20.230Z,97349.47
2022-12-11T08:45:47.339Z,97346.19
2022-12-11T08:48:14.503Z,97348.69
2022-12-11T08:50:41.799Z,97348.09
2022-12-11T08:53:08.847Z,97342.00
2022-12-11T08:55:35.899Z,97344.69
2022-12-11T08:58:03.257Z,97351.06
2022-12-11T09:00:30.285Z,97339.91
2022-12-11T09:02:57.353Z,97341.41
2022-12-11T09:05:24.430Z,97348.25
2022-12-11T09:07:51.541Z,97348.25
2022-12-11T09:10:18.859Z,97363.56
2022-12-11T09:12:45.940Z,97363.25
2022-12-11T09:15:13.374Z,97361.78
2022-12-11T09:17:40.670Z,97354.63
2022-12-11T09:20:08.258Z,97350.63
2022-12-11T09:22:35.333Z,97347.31
2022-12-11T09:25:02.504Z,97352.53
2022-12-11T09:27:29.565Z,97346.84
2022-12-11T09:29:56.664Z,97347.16
2022-12-11T09:32:23.737Z,97345.09
2022-12-11T09:34:51.911Z,97348.78
2022-12-11T09:37:19.031Z,97345.97
2022-12-11T09:39:46.079Z,97343.56
2022-12-11T09:42:32.836Z,97337.47
2022-12-11T09:45:02.418Z,97342.69
2022-12-11T09:47:41.295Z,97339.56
2022-12-11T09:50:11.433Z,97344.16
2022-12-11T09:56:00.905Z,97335.84
2022-12-11T09:58:37.295Z,97349.53
2022-12-11T10:01:29.758Z,97332.28
2022-12-11T10:04:21.204Z,97334.97
2022-12-11T10:06:57.234Z,97330.75
2022-12-11T10:09:50.378Z,97327.75
2022-12-11T10:12:38.324Z,97326.13
2022-12-11T10:15:33.731Z,97332.97
2022-12-11T10:18:04.872Z,97324.19
2022-12-11T10:20:39.516Z,97323.28
2022-12-11T10:23:08.850Z,97320.31
2022-12-11T10:25:40.636Z,97325.97
2022-12-11T10:28:14.235Z,97323.84
2022-12-11T10:31:08.729Z,97323.19
2022-12-11T10:33:54.976Z,97321.25
2022-12-11T10:36:31.454Z,97318.47
2022-12-11T10:38:59.219Z,97313.56
2022-12-11T10:41:43.570Z,97313.56
2022-12-11T10:44:18.182Z,97312.19
2022-12-11T10:46:47.139Z,97305.91
2022-12-11T10:49:25.140Z,97321.09
2022-12-11T10:51:53.170Z,97303.81
2022-12-11T10:54:29.234Z,97314.09
2022-12-11T10:56:56.495Z,97305.44
2022-12-11T10:59:37.317Z,97306.91
2022-12-11T11:02:07.595Z,97298.41
2022-12-11T11:04:39.153Z,97296.91
2022-12-11T11:07:13.828Z,97297.84
2022-12-11T11:09:41.408Z,97299.00
2022-12-11T11:12:27.171Z,97295.19
2022-12-11T11:15:06.052Z,97294.22
2022-12-11T11:17:35.394Z,97281.59
2022-12-11T11:20:07.456Z,97279.53
2022-12-11T11:22:39.289Z,97266.34
2022-12-11T11:25:06.723Z,97269.16
2022-12-11T11:27:47.755Z,97267.13
2022-12-11T11:30:25.096Z,97262.97
2022-12-11T11:32:55.575Z,97278.13
2022-12-11T11:35:27.387Z,97265.59
2022-12-11T11:38:18.635Z,97264.13
2022-12-11T11:40:51.364Z,97262.78
2022-12-11T11:43:38.980Z,97265.75
2022-12-11T11:46:07.914Z,97258.28
2022-12-11T11:48:37.827Z,97262.47
2022-12-11T11:51:14.696Z,97254.41
2022-12-11T11:53:44.850Z,97250.53
2022-12-11T11:56:23.824Z,97247.41
2022-12-11T11:59:25.117Z,97247.84
2022-12-11T12:01:55.127Z,97250.41
2022-12-11T12:04:22.695Z,97244.47
2022-12-11T12:07:04.952Z,97241.53
2022-12-11T12:09:51.633Z,97241.66
2022-12-11T12:12:45.024Z,97237.06
2022-12-11T12:15:21.787Z,97231.69
2022-12-11T12:17:55.849Z,97232.75
2022-12-11T12:20:48.868Z,97237.63
2022-12-11T12:23:36.625Z,97233.91
2022-12-11T12:26:12.306Z,97223.19
2022-12-11T12:28:49.110Z,97229.16
2022-12-11T12:31:25.258Z,97231.66
2022-12-11T12:34:24.354Z,97227.16
2022-12-11T12:36:56.299Z,97221.81
2022-12-11T12:39:47.861Z,97217.03
2022-12-11T12:42:24.185Z,97215.53
2022-12-11T12:45:13.003Z,97211.34
2022-12-11T12:47:42.289Z,97214.78
2022-12-11T12:50:13.750Z,97222.06
2022-12-11T12:52:41.352Z,97219.28
2022-12-11T12:55:29.025Z,97222.41
2022-12-11T12:58:00.272Z,97215.28
2022-12-11T13:00:39.182Z,97209.94
2022-12-11T13:03:17.515Z,97208.91
2022-12-11T13:05:54.648Z,97219.50
2022-12-11T13:08:26.931Z,97210.44
2022-12-11T13:11:05.527Z,97205.22
2022-12-11T13:13:41.770Z,97194.34
2022-12-11T13:16:36.383Z,97204.91
2022-12-11T13:19:03.989Z,97207.72
2022-12-11T13:21:33.831Z,97205.31
2022-12-11T13:24:13.165Z,97208.13
2022-12-11T13:26:40.382Z,97205.72
2022-12-11T13:29:31.599Z,97214.97
2022-12-11T13:32:01.971Z,97220.59
2022-12-11T13:34:33.335Z,97222.38
2022-12-11T13:39:48.319Z,97227.16
2022-12-11T13:42:44.777Z,97221.97
2022-12-11T13:45:28.478Z,97216.31
2022-12-11T13:47:57.286Z,97224.06
2022-12-11T13:50:28.543Z,97222.88
2022-12-11T13:52:57.659Z,97207.25
2022-12-11T13:55:27.496Z,97222.16
2022-12-11T13:57:55.166Z,97212.84
2022-12-11T14:00:28.456Z,97222.94
2022-12-11T14:02:57.698Z,97223.69
2022-12-11T14:05:24.960Z,97218.06
2022-12-11T14:07:55.258Z,97221.50
2022-12-11T14:10:30.756Z,97219.56
2022-12-11T14:13:02.763Z,97222.41
2022-12-11T14:15:30.667Z,97219.91
2022-12-11T14:17:58.424Z,97213.78
2022-12-11T14:20:27.968Z,97225.28
2022-12-11T14:23:14.017Z,97222.91
2022-12-11T14:25:41.122Z,97223.22
2022-12-11T14:28:16.895Z,97229.50
2022-12-11T14:30:50.323Z,97231.53
2022-12-11T14:33:19.510Z,97233.34
2022-12-11T14:35:47.465Z,97232.16
2022-12-11T14:38:20.466Z,97235.09
2022-12-11T14:40:52.009Z,97232.44
2022-12-11T14:43:35.438Z,97230.94
2022-12-11T14:46:06.752Z,97237.94
2022-12-11T14:48:42.168Z,97221.22
2022-12-11T14:51:14.985Z,97232.25
2022-12-11T14:53:45.379Z,97227.19
2022-12-11T14:56:21.840Z,97232.09
2022-12-11T14:58:58.527Z,97233.47
2022-12-11T15:01:31.631Z,97232.41
2022-12-11T15:04:27.596Z,97230.34
2022-12-11T15:06:55.792Z,97236.88
2022-12-11T15:09:27.952Z,97233.16
2022-12-11T15:11:58.455Z,97233.34
2022-12-11T15:14:25.994Z,97235.88
2022-12-11T15:16:56.435Z,97228.75
2022-12-11T15:19:30.762Z,97242.56
2022-12-11T15:22:05.712Z,97235.28
2022-12-11T15:24:41.748Z,97242.75
2022-12-11T15:27:26.275Z,97236.38
2022-12-11T15:29:53.479Z,97234.44
2022-12-11T15:32:21.762Z,97238.59
2022-12-11T15:34:51.977Z,97231.75
2022-12-11T15:37:30.015Z,97243.19
2022-12-11T15:39:59.175Z,97237.84
2022-12-11T15:42:30.783Z,97239.63
2022-12-11T15:44:58.274Z,97233.97
2022-12-11T15:47:27.451Z,97247.06
2022-12-11T15:49:59.919Z,97252.44
2022-12-11T15:52:26.994Z,97247.06
2022-12-11T15:54:54.351Z,97250.19
2022-12-11T15:57:22.932Z,97242.00
2022-12-11T15:59:51.529Z,97253.00
2022-12-11T16:02:18.672Z,97262.06
2022-12-11T16:04:45.776Z,97261.63
2022-12-11T16:07:16.700Z,97256.56
2022-12-11T16:09:44.915Z,97258.06
2022-12-11T16:12:13.697Z,97271.44
2022-12-11T16:14:41.659Z,97256.56
2022-12-11T16:17:09.859Z,97258.50
2022-12-11T16:19:37.227Z,97260.88
2022-12-11T16:22:05.478Z,97245.25
2022-12-11T16:24:33.248Z,97255.09
2022-12-11T16:27:00.373Z,97252.69
2022-12-11T16:29:27.708Z,97247.34
2022-12-11T16:31:55.251Z,97252.69
2022-12-11T16:34:26.350Z,97255.97
2022-12-11T16:36:53.680Z,97256.72
2022-12-11T16:39:20.721Z,97252.09
2022-12-11T16:41:47.820Z,97241.38
2022-12-11T16:44:19.547Z,97247.06
2022-12-11T16:46:46.895Z,97241.38
2022-12-11T16:49:14.501Z,97239.91
2022-12-11T16:51:41.934Z,97239.63
2022-12-11T16:54:10.369Z,97238.13
2022-12-11T16:56:37.994Z,97244.41
2022-12-11T16:59:05.576Z,97242.88
2022-12-11T17:01:33.122Z,97244.09
2022-12-11T17:04:00.442Z,97242.31
2022-12-11T17:06:27.609Z,97248.25
2022-12-11T17:08:54.917Z,97247.06
2022-12-11T17:11:23.253Z,97249.44
2022-12-11T17:13:55.181Z,97250.63
2022-12-11T17:16:24.797Z,97249.16
2022-12-11T17:18:52.753Z,97255.69
2022-12-11T17:21:20.876Z,97254.66
2022-12-11T17:23:48.518Z,97257.63
2022-12-11T17:26:16.466Z,97254.50
2022-12-11T17:28:43.783Z,97253.31
2022-12-11T17:31:16.164Z,97264.47
2022-12-11T17:33:44.692Z,97266.13
2022-12-11T17:36:14.639Z,97254.22
2022-12-11T17:38:41.886Z,97262.25
2022-12-11T17:41:12.157Z,97253.47
2022-12-11T17:43:41.815Z,97269.38
2022-12-11T17:46:11.628Z,97260.16
2022-12-11T17:48:39.382Z,97257.03
2022-12-11T17:51:09.472Z,97258.22
2022-12-11T17:53:36.796Z,97257.63
2022-12-11T17:56:05.927Z,97275.31
2022-12-11T17:58:33.953Z,97266.53
2022-12-11T18:01:01.293Z,97270.72
2022-12-11T18:03:28.491Z,97268.03
2022-12-11T18:05:56.809Z,97266.25
2022-12-11T18:08:26.297Z,97263.88
2022-12-11T18:10:54.374Z,97266.09
2022-12-11T18:13:22.222Z,97266.09
2022-12-11T18:16:14.078Z,97275.63
2022-12-11T18:18:41.299Z,97266.41
2022-12-11T18:21:12.600Z,97269.09
2022-12-11T18:23:39.686Z,97269.38
2022-12-11T18:26:06.774Z,97261.34
2022-12-11T18:28:34.084Z,97260.59
2022-12-11T18:31:03.069Z,97266.25
2022-12-11T18:33:30.843Z,97264.75
2022-12-11T18:35:57.940Z,97263.00
2022-12-11T18:38:25.084Z,97255.09
2022-12-11T18:40:52.157Z,97262.84
2022-12-11T18:43:19.339Z,97264.31
2022-12-11T18:45:46.638Z,97257.78
2022-12-11T18:48:14.560Z,97257.47
2022-12-11T18:50:45.391Z,97260.44
2022-12-11T18:53:12.813Z,97265.81
2022-12-11T18:55:44.407Z,97259.72
2022-12-11T18:58:13.079Z,97261.06
2022-12-11T19:00:41.481Z,97259.88
2022-12-11T19:03:09.887Z,97252.59
2022-12-11T19:05:37.781Z,97266.25
2022-12-11T19:08:05.032Z,97256.28
2022-12-11T19:10:32.082Z,97258.69
2022-12-11T19:12:59.206Z,97258.97
2022-12-11T19:15:27.515Z,97262.53
2022-12-11T19:17:54.577Z,97265.22
2022-12-11T19:23:08.833Z,97264.75
2022-12-11T19:25:45.281Z,97268.19
2022-12-11T19:28:12.379Z,97266.69
2022-12-11T19:30:46.584Z,97268.47
2022-12-11T19:33:13.785Z,97269.66
2022-12-11T19:35:40.867Z,97268.19
2022-12-11T19:38:08.428Z,97263.28
2022-12-11T19:40:43.188Z,97266.25
2022-12-11T19:43:10.806Z,97265.78
2022-12-11T19:45:38.126Z,97263.13
2022-12-11T19:48:05.970Z,97260.75
2022-12-11T19:50:35.445Z,97260.16
2022-12-11T19:53:02.768Z,97261.50
2022-12-11T19:55:29.888Z,97258.84
2022-12-11T19:57:56.915Z,97260.75
2022-12-11T20:00:24.658Z,97266.53
2022-12-11T20:02:52.069Z,97260.44
2022-12-11T20:05:19.206Z,97258.97
2022-12-11T20:07:46.379Z,97264.47
2022-12-11T20:10:13.477Z,97264.47
2022-12-11T20:12:40.684Z,97264.47
2022-12-11T20:15:08.161Z,97258.69
2022-12-11T20:17:36.666Z,97258.22
2022-12-11T20:20:04.007Z,97260.31
2022-12-11T20:22:31.081Z,97252.44
2022-12-11T20:24:58.638Z,97244.84
2022-12-11T20:27:26.250Z,97245.31
2022-12-11T20:29:53.295Z,97247.97
2022-12-11T20:32:20.515Z,97250.66
2022-12-11T20:34:47.720Z,97252.72
2022-12-11T20:37:14.759Z,97249.00
2022-12-11T20:39:41.787Z,97257.66
2022-12-11T20:42:09.738Z,97261.06
2022-12-11T20:44:37.000Z,97258.69
2022-12-11T20:47:04.183Z,97269.22
2022-12-11T20:49:31.360Z,97262.53
2022-12-11T20:51:59.724Z,97258.50
2022-12-11T20:54:27.022Z,97262.84
2022-12-11T20:56:54.188Z,97264.75
2022-12-11T20:59:21.279Z,97256.28
2022-12-11T21:01:49.312Z,97260.44
2022-12-11T21:04:16.423Z,97258.22
2022-12-11T21:06:43.807Z,97260.03
2022-12-11T21:09:17.749Z,97258.50
2022-12-11T21:11:44.938Z,97252.00
2022-12-11T21:14:12.120Z,97259.25
2022-12-11T21:16:39.371Z,97263.72
2022-12-11T21:19:07.056Z,97263.00
2022-12-11T21:21:36.793Z,97254.22
2022-12-11T21:24:04.039Z,97255.41
2022-12-11T21:26:31.102Z,97249.00
2022-12-11T21:28:58.261Z,97253.31
2022-12-11T21:31:25.682Z,97254.81
2022-12-11T21:33:53.595Z,97256.44
2022-12-11T21:36:20.721Z,97256.28
2022-12-11T21:38:47.759Z,97256.28
2022-12-11T21:41:17.813Z,97248.25
2022-12-11T21:44:56.566Z,97258.97
2022-12-11T21:46:33.374Z,97245.88
2022-12-11T21:49:00.469Z,97248.13
2022-12-11T21:51:35.928Z,97256.16
2022-12-11T21:54:05.700Z,97252.28
2022-12-11T21:56:33.238Z,97254.50
2022-12-11T21:59:01.515Z,97250.06
2022-12-11T22:01:33.496Z,97250.81
2022-12-11T22:04:01.442Z,97253.78
2022-12-11T22:06:28.586Z,97254.22
2022-12-11T22:08:55.803Z,97245.44
2022-12-11T22:11:28.392Z,97248.25
2022-12-11T22:13:55.717Z,97260.91
2022-12-11T22:16:23.016Z,97259.69
2022-12-11T22:18:50.134Z,97259.25
2022-12-11T22:21:17.862Z,97246.19
2022-12-11T22:23:45.051Z,97252.75
2022-12-11T22:26:17.660Z,97248.56
2022-12-11T22:28:44.752Z,97254.81
2022-12-11T22:31:14.274Z,97255.41
2022-12-11T22:33:43.490Z,97250.06
2022-12-11T22:36:11.343Z,97249.31
2022-12-11T22:38:39.276Z,97247.81
2022-12-11T22:41:18.974Z,97252.59
2022-12-11T22:43:49.224Z,97255.25
2022-12-11T22:46:18.225Z,97252.88
2022-12-11T22:48:45.463Z,97257.78
2022-12-11T22:51:12.848Z,97250.50
2022-12-11T22:53:39.954Z,97250.06
2022-12-11T22:56:09.015Z,97247.53
2022-12-11T22:58:36.133Z,97248.56
2022-12-11T23:01:07.589Z,97256.91
2022-12-11T23:03:34.662Z,97257.63
2022-12-11T23:06:05.529Z,97253.47
2022-12-11T23:08:33.157Z,97256.00
2022-12-11T23:11:00.338Z,97247.50
2022-12-11T23:13:27.446Z,97250.94
2022-12-11T23:15:54.513Z,97257.47
2022-12-11T23:18:21.602Z,97260.59
2022-12-11T23:20:49.300Z,97260.75
2022-12-11T23:23:16.356Z,97273.09
2022-12-11T23:25:43.638Z,97260.91
2022-12-11T23:28:10.705Z,97271.59
2022-12-11T23:30:38.007Z,97266.25
2022-12-11T23:33:06.556Z,97264.31
2022-12-11T23:35:33.821Z,97264.47
2022-12-11T23:38:01.113Z,97267.16
2022-12-11T23:40:28.288Z,97266.09
2022-12-11T23:42:55.336Z,97268.75
2022-12-11T23:45:22.386Z,97264.59
2022-12-11T23:47:49.527Z,97267.44
2022-12-11T23:50:16.584Z,97272.63
2022-12-11T23:52:43.671Z,97270.25
2022-12-11T23:55:11.268Z,97267.00
2022-12-11T23:57:38.597Z,97266.09
